createdAt,value
2023-01-03T00:01:16.009Z,39.50
2023-01-03T00:03:43.419Z,32.53
2023-01-03T00:06:22.425Z,31.73
2023-01-03T00:08:50.126Z,36.40
2023-01-03T00:11:42.465Z,40.95
2023-01-03T00:14:10.731Z,37.00
2023-01-03T00:16:38.151Z,36.90
2023-01-03T00:19:10.424Z,35.33
2023-01-03T00:21:38.129Z,39.03
2023-01-03T00:24:06.412Z,37.63
2023-01-03T00:26:33.728Z,34.10
2023-01-03T00:29:01.128Z,32.20
2023-01-03T00:31:28.286Z,30.25
2023-01-03T00:33:55.460Z,28.33
2023-01-03T00:36:22.489Z,25.48
2023-01-03T00:38:49.361Z,29.38
2023-01-03T00:41:18.787Z,23.92
2023-01-03T00:43:47.551Z,29.55
2023-01-03T00:46:16.739Z,41.05
2023-01-03T00:48:43.676Z,40.47
2023-01-03T00:51:13.484Z,33.38
2023-01-03T00:53:41.564Z,34.80
2023-01-03T00:56:11.207Z,35.35
2023-01-03T00:58:38.511Z,30.90
2023-01-03T01:01:10.515Z,43.40
2023-01-03T01:03:39.882Z,39.33
2023-01-03T01:06:20.596Z,42.95
2023-01-03T01:08:49.016Z,42.47
2023-01-03T01:11:17.416Z,35.63
2023-01-03T01:13:45.764Z,32.22
2023-01-03T01:16:15.396Z,24.23
2023-01-03T01:18:44.367Z,30.83
2023-01-03T01:21:21.795Z,26.73
2023-01-03T01:23:49.054Z,30.55
2023-01-03T01:26:19.119Z,29.65
2023-01-03T01:28:46.685Z,32.80
2023-01-03T01:31:17.063Z,23.95
2023-01-03T01:33:44.494Z,29.05
2023-01-03T01:36:22.847Z,28.73
2023-01-03T01:38:54.434Z,25.70
2023-01-03T01:41:41.848Z,30.95
2023-01-03T01:44:46.973Z,30.67
2023-01-03T01:47:22.919Z,33.47
2023-01-03T01:49:54.950Z,34.17
2023-01-03T01:52:22.633Z,32.45
2023-01-03T01:54:51.922Z,33.45
2023-01-03T01:57:21.679Z,30.30
2023-01-03T01:59:48.912Z,33.83
2023-01-03T02:02:20.797Z,31.95
2023-01-03T02:04:52.473Z,33.08
2023-01-03T02:07:22.310Z,33.75
2023-01-03T02:09:52.990Z,39.10
2023-01-03T02:13:01.764Z,37.33
2023-01-03T02:16:04.166Z,28.45
2023-01-03T02:18:34.180Z,40.60
2023-01-03T02:21:29.307Z,31.25
2023-01-03T02:24:11.058Z,37.70
2023-01-03T02:26:59.193Z,35.00
2023-01-03T02:29:33.696Z,36.78
2023-01-03T02:32:24.208Z,31.80
2023-01-03T02:35:28.333Z,33.85
2023-01-03T02:38:03.839Z,29.17
2023-01-03T02:40:43.167Z,35.05
2023-01-03T02:43:21.334Z,34.63
2023-01-03T02:46:07.911Z,35.47
2023-01-03T02:48:46.259Z,34.38
2023-01-03T02:51:23.650Z,33.53
2023-01-03T02:53:51.635Z,34.95
2023-01-03T02:56:23.381Z,32.83
2023-01-03T02:58:59.002Z,32.28
2023-01-03T03:01:28.200Z,32.85
2023-01-03T03:03:56.861Z,34.15
2023-01-03T03:06:43.304Z,38.10
2023-01-03T03:09:10.239Z,35.60
2023-01-03T03:11:59.376Z,38.90
2023-01-03T03:14:35.179Z,33.03
2023-01-03T03:17:08.321Z,37.40
2023-01-03T03:19:55.755Z,37.92
2023-01-03T03:23:15.743Z,40.63
2023-01-03T03:25:45.041Z,33.60
2023-01-03T03:28:35.067Z,34.15
2023-01-03T03:31:20.433Z,31.45
2023-01-03T03:33:51.879Z,31.60
2023-01-03T03:36:54.286Z,32.60
2023-01-03T03:39:41.177Z,34.83
2023-01-03T03:42:43.135Z,32.25
2023-01-03T03:45:19.492Z,35.08
2023-01-03T03:47:58.705Z,28.98
2023-01-03T03:50:37.804Z,34.70
2023-01-03T03:53:08.756Z,34.67
2023-01-03T03:55:43.891Z,35.75
2023-01-03T03:58:32.372Z,33.38
2023-01-03T04:01:00.861Z,39.60
2023-01-03T04:03:30.840Z,34.33
2023-01-03T04:06:07.206Z,33.05
2023-01-03T04:08:34.333Z,46.95
2023-01-03T04:11:07.357Z,73.40
2023-01-03T04:13:36.671Z,87.70
2023-01-03T04:16:04.807Z,112.60
2023-01-03T04:18:31.947Z,111.57
2023-01-03T04:20:58.793Z,94.80
2023-01-03T04:23:25.938Z,50.70
2023-01-03T04:25:53.062Z,50.90
2023-01-03T04:28:20.276Z,58.80
2023-01-03T04:30:47.560Z,66.70
2023-01-03T04:33:14.793Z,62.38
2023-01-03T04:35:41.807Z,72.18
2023-01-03T04:38:08.758Z,106.03
2023-01-03T04:40:38.759Z,136.15
2023-01-03T04:43:24.139Z,183.40
2023-01-03T04:45:51.951Z,197.57
2023-01-03T04:48:19.019Z,187.77
2023-01-03T04:50:56.134Z,180.98
2023-01-03T04:53:24.512Z,223.90
2023-01-03T04:55:52.712Z,206.85
2023-01-03T04:58:20.318Z,189.23
2023-01-03T05:00:47.500Z,209.90
2023-01-03T05:03:16.213Z,225.55
2023-01-03T05:05:43.176Z,197.68
2023-01-03T05:08:12.140Z,214.88
2023-01-03T05:10:39.764Z,225.15
2023-01-03T05:13:06.716Z,221.82
2023-01-03T05:15:39.681Z,227.15
2023-01-03T05:18:06.793Z,256.30
2023-01-03T05:20:55.241Z,232.40
2023-01-03T05:23:40.944Z,237.73
2023-01-03T05:26:12.809Z,214.65
2023-01-03T05:28:41.061Z,231.27
2023-01-03T05:31:07.905Z,232.18
2023-01-03T05:33:34.985Z,233.57
2023-01-03T05:36:01.871Z,189.85
2023-01-03T05:38:28.784Z,220.52
2023-01-03T05:40:55.705Z,226.55
2023-01-03T05:43:22.576Z,221.77
2023-01-03T05:45:53.737Z,242.77
2023-01-03T05:48:21.753Z,229.20
2023-01-03T05:50:50.094Z,224.52
2023-01-03T05:53:17.389Z,222.68
2023-01-03T05:55:44.557Z,193.73
2023-01-03T05:58:12.865Z,170.57
2023-01-03T06:00:40.230Z,157.48
2023-01-03T06:03:07.620Z,152.98
2023-01-03T06:05:34.671Z,130.35
2023-01-03T06:08:02.535Z,146.23
2023-01-03T06:10:29.741Z,132.27
2023-01-03T06:12:57.159Z,116.85
2023-01-03T06:15:24.137Z,118.10
2023-01-03T06:18:02.580Z,116.72
2023-01-03T06:20:30.494Z,123.20
2023-01-03T06:22:58.069Z,130.00
2023-01-03T06:25:25.790Z,124.35
2023-01-03T06:27:52.871Z,106.93
2023-01-03T06:30:20.994Z,103.20
2023-01-03T06:32:48.106Z,95.93
2023-01-03T06:35:15.253Z,93.15
2023-01-03T06:37:42.392Z,101.72
2023-01-03T06:40:09.905Z,102.53
2023-01-03T06:42:39.635Z,105.93
2023-01-03T06:45:25.452Z,94.53
2023-01-03T06:48:10.935Z,86.10
2023-01-03T06:53:32.453Z,95.78
2023-01-03T06:56:00.593Z,75.50
2023-01-03T06:58:27.800Z,66.00
2023-01-03T07:00:56.170Z,57.45
2023-01-03T07:03:23.751Z,62.42
2023-01-03T07:05:51.041Z,65.45
2023-01-03T07:08:18.250Z,68.13
2023-01-03T07:10:45.252Z,55.67
2023-01-03T07:13:30.486Z,54.88
2023-01-03T07:18:26.300Z,71.40
2023-01-03T07:20:53.767Z,62.75
2023-01-03T07:23:21.302Z,60.63
2023-01-03T07:25:48.309Z,66.45
2023-01-03T07:28:16.945Z,56.30
2023-01-03T07:30:46.145Z,52.90
2023-01-03T07:33:15.364Z,48.00
2023-01-03T07:35:42.620Z,51.90
2023-01-03T07:38:10.832Z,50.30
2023-01-03T07:40:38.093Z,47.17
2023-01-03T07:43:40.261Z,29.25
2023-01-03T07:46:08.556Z,39.25
2023-01-03T07:48:36.561Z,38.65
2023-01-03T07:51:05.387Z,37.45
2023-01-03T07:53:32.975Z,37.50
2023-01-03T07:56:19.370Z,41.15
2023-01-03T07:58:49.195Z,44.58
2023-01-03T08:01:21.530Z,47.38
2023-01-03T08:03:49.078Z,51.85
2023-01-03T08:06:19.500Z,45.45
2023-01-03T08:09:06.780Z,43.60
2023-01-03T08:11:52.210Z,44.72
2023-01-03T08:14:25.093Z,38.83
2023-01-03T08:16:53.031Z,46.97
2023-01-03T08:19:19.926Z,36.92
2023-01-03T08:21:46.860Z,44.47
2023-01-03T08:24:13.801Z,52.47
2023-01-03T08:26:40.846Z,47.47
2023-01-03T08:29:08.140Z,41.42
2023-01-03T08:31:41.580Z,44.08
2023-01-03T08:34:18.406Z,45.08
2023-01-03T08:36:54.774Z,42.83
2023-01-03T08:39:26.571Z,46.00
2023-01-03T08:42:03.589Z,49.92
2023-01-03T08:44:30.707Z,49.95
2023-01-03T08:47:00.614Z,50.65
2023-01-03T08:49:28.125Z,55.03
2023-01-03T08:51:55.012Z,42.00
2023-01-03T08:54:21.965Z,35.55
2023-01-03T08:56:48.940Z,41.33
2023-01-03T08:59:15.873Z,40.13
2023-01-03T09:01:43.109Z,46.40
2023-01-03T09:04:10.277Z,54.83
2023-01-03T09:06:37.202Z,43.33
2023-01-03T09:09:08.620Z,41.42
2023-01-03T09:11:35.685Z,35.40
2023-01-03T09:14:02.625Z,28.13
2023-01-03T09:16:29.754Z,49.50
2023-01-03T09:18:56.781Z,43.05
2023-01-03T09:21:23.832Z,48.42
2023-01-03T09:23:51.470Z,35.28
2023-01-03T09:26:18.366Z,35.33
2023-01-03T09:28:45.387Z,40.65
2023-01-03T09:31:12.285Z,34.40
2023-01-03T09:33:39.220Z,43.85
2023-01-03T09:36:06.559Z,55.78
2023-01-03T09:38:33.688Z,41.35
2023-01-03T09:41:06.127Z,44.85
2023-01-03T09:43:46.085Z,38.00
2023-01-03T09:46:19.456Z,38.47
2023-01-03T09:48:48.442Z,40.35
2023-01-03T09:51:42.476Z,44.85
2023-01-03T09:54:48.875Z,36.03
2023-01-03T09:58:03.550Z,35.22
2023-01-03T10:00:58.926Z,37.05
2023-01-03T10:06:50.624Z,33.90
2023-01-03T10:09:23.674Z,36.42
2023-01-03T10:12:17.706Z,34.42
2023-01-03T10:14:56.757Z,42.63
2023-01-03T10:17:54.881Z,46.38
2023-01-03T10:20:47.198Z,36.10
2023-01-03T10:23:14.683Z,44.42
2023-01-03T10:25:44.656Z,41.92
2023-01-03T10:28:14.542Z,40.10
2023-01-03T10:31:12.247Z,56.60
2023-01-03T10:33:39.049Z,42.60
2023-01-03T10:36:08.079Z,41.25
2023-01-03T10:38:43.588Z,24.73
2023-01-03T10:41:36.942Z,34.97
2023-01-03T10:44:04.504Z,32.75
2023-01-03T10:46:31.590Z,28.42
2023-01-03T10:49:27.222Z,32.17
2023-01-03T10:52:09.622Z,30.92
2023-01-03T10:54:49.193Z,26.48
2023-01-03T10:57:48.588Z,30.30
2023-01-03T11:00:36.091Z,22.42
2023-01-03T11:03:16.826Z,31.35
2023-01-03T11:05:46.980Z,36.00
2023-01-03T11:08:19.761Z,26.70
2023-01-03T11:10:57.573Z,27.25
2023-01-03T11:13:34.843Z,24.42
2023-01-03T11:16:04.009Z,34.03
2023-01-03T11:18:31.815Z,20.00
2023-01-03T11:21:34.174Z,24.52
2023-01-03T11:24:17.110Z,22.95
2023-01-03T11:27:12.860Z,19.35
2023-01-03T11:30:17.010Z,17.90
2023-01-03T11:33:12.249Z,17.40
2023-01-03T11:35:53.636Z,34.90
2023-01-03T11:38:58.066Z,50.83
2023-01-03T11:41:33.679Z,18.65
2023-01-03T11:44:22.296Z,75.95
2023-01-03T11:47:13.239Z,56.25
2023-01-03T11:49:52.197Z,26.33
2023-01-03T11:52:34.341Z,42.53
2023-01-03T11:55:31.321Z,31.83
2023-01-03T11:58:18.404Z,29.05
2023-01-03T12:00:56.233Z,27.33
2023-01-03T12:03:35.121Z,30.50
2023-01-03T12:06:28.600Z,28.52
2023-01-03T12:09:04.727Z,21.30
2023-01-03T12:11:40.766Z,45.22
2023-01-03T12:14:31.189Z,20.38
2023-01-03T12:17:08.205Z,33.92
2023-01-03T12:19:56.027Z,20.17
2023-01-03T12:22:48.870Z,29.88
2023-01-03T12:25:27.471Z,16.70
2023-01-03T12:28:13.074Z,26.83
2023-01-03T12:30:46.336Z,18.77
2023-01-03T12:33:13.215Z,22.38
2023-01-03T12:35:55.288Z,15.82
2023-01-03T12:38:29.468Z,16.90
2023-01-03T12:41:07.886Z,16.15
2023-01-03T12:44:01.501Z,13.18
2023-01-03T12:46:38.486Z,11.43
2023-01-03T12:49:11.628Z,15.15
2023-01-03T12:51:38.774Z,16.27
2023-01-03T12:54:14.507Z,8.68
2023-01-03T12:56:59.882Z,9.05
2023-01-03T12:59:36.871Z,13.43
2023-01-03T13:02:21.867Z,20.00
2023-01-03T13:04:54.849Z,17.05
2023-01-03T13:07:31.961Z,17.13
2023-01-03T13:10:04.925Z,26.60
2023-01-03T13:12:37.077Z,17.23
2023-01-03T13:15:03.966Z,20.48
2023-01-03T13:17:32.989Z,28.58
2023-01-03T13:20:25.511Z,28.92
2023-01-03T13:22:56.180Z,44.70
2023-01-03T13:25:42.515Z,40.25
2023-01-03T13:28:15.053Z,36.95
2023-01-03T13:30:41.969Z,38.78
2023-01-03T13:33:12.012Z,47.63
2023-01-03T13:35:45.084Z,48.92
2023-01-03T13:38:35.940Z,65.70
2023-01-03T13:41:21.317Z,43.67
2023-01-03T13:43:50.910Z,59.00
2023-01-03T13:46:31.451Z,29.92
2023-01-03T13:49:07.849Z,40.45
2023-01-03T13:51:54.910Z,46.38
2023-01-03T13:54:21.848Z,56.60
2023-01-03T13:56:48.678Z,36.03
2023-01-03T13:59:15.617Z,42.67
2023-01-03T14:01:57.451Z,42.13
2023-01-03T14:04:35.375Z,68.75
2023-01-03T14:07:28.707Z,40.65
2023-01-03T14:10:20.128Z,55.05
2023-01-03T14:12:49.870Z,74.07
2023-01-03T14:15:26.081Z,53.17
2023-01-03T14:18:00.108Z,35.67
2023-01-03T14:20:31.480Z,38.00
2023-01-03T14:23:17.176Z,38.58
2023-01-03T14:25:51.534Z,43.83
2023-01-03T14:28:46.388Z,44.47
2023-01-03T14:31:22.863Z,38.73
2023-01-03T14:34:01.043Z,51.05
2023-01-03T14:36:28.702Z,45.58
2023-01-03T14:38:58.049Z,55.08
2023-01-03T14:41:38.863Z,60.90
2023-01-03T14:44:09.554Z,54.63
2023-01-03T14:46:38.218Z,54.17
2023-01-03T14:49:20.561Z,75.38
2023-01-03T14:51:47.878Z,60.03
2023-01-03T14:54:19.309Z,48.67
2023-01-03T14:56:48.556Z,55.90
2023-01-03T14:59:19.709Z,48.58
2023-01-03T15:01:47.625Z,59.65
2023-01-03T15:04:17.408Z,57.03
2023-01-03T15:07:04.837Z,58.75
2023-01-03T15:09:35.942Z,60.90
2023-01-03T15:12:05.604Z,66.25
2023-01-03T15:14:36.305Z,94.38
2023-01-03T15:17:15.800Z,69.65
2023-01-03T15:19:53.653Z,84.40
2023-01-03T15:22:24.092Z,68.95
2023-01-03T15:25:01.899Z,96.70
2023-01-03T15:27:38.026Z,103.07
2023-01-03T15:30:20.986Z,77.45
2023-01-03T15:32:58.974Z,74.85
2023-01-03T15:35:39.909Z,78.80
2023-01-03T15:38:19.236Z,68.75
2023-01-03T15:40:49.317Z,88.45
2023-01-03T15:43:19.805Z,71.15
2023-01-03T15:46:02.284Z,79.50
2023-01-03T15:48:31.796Z,78.65
2023-01-03T15:50:59.772Z,81.15
2023-01-03T15:53:42.846Z,77.43
2023-01-03T15:56:14.563Z,81.90
2023-01-03T15:58:41.858Z,79.65
2023-01-03T16:01:09.813Z,75.93
2023-01-03T16:03:37.259Z,59.42
2023-01-03T16:06:05.353Z,82.57
2023-01-03T16:08:35.500Z,64.43
2023-01-03T16:11:29.854Z,79.82
2023-01-03T16:14:05.120Z,88.95
2023-01-03T16:16:36.360Z,65.60
2023-01-03T16:19:05.692Z,80.07
2023-01-03T16:21:34.025Z,78.10
2023-01-03T16:24:02.822Z,75.60
2023-01-03T16:26:29.973Z,90.28
2023-01-03T16:28:56.889Z,73.20
2023-01-03T16:31:44.023Z,77.72
2023-01-03T16:34:19.950Z,44.83
2023-01-03T16:36:48.069Z,44.47
2023-01-03T16:39:21.091Z,61.70
2023-01-03T16:42:07.735Z,50.80
2023-01-03T16:44:36.191Z,58.80
2023-01-03T16:47:06.711Z,65.32
2023-01-03T16:49:35.600Z,67.85
2023-01-03T16:52:03.661Z,62.95
2023-01-03T16:54:30.815Z,54.03
2023-01-03T16:56:57.818Z,43.58
2023-01-03T16:59:24.837Z,51.10
2023-01-03T17:01:51.831Z,42.72
2023-01-03T17:04:18.877Z,39.40
2023-01-03T17:06:45.939Z,19.92
2023-01-03T17:09:20.534Z,20.83
2023-01-03T17:11:47.588Z,16.60
2023-01-03T17:14:20.232Z,34.30
2023-01-03T17:16:48.257Z,30.52
2023-01-03T17:20:02.711Z,37.17
2023-01-03T17:22:17.781Z,63.78
2023-01-03T17:24:45.688Z,61.50
2023-01-03T17:27:32.084Z,58.50
2023-01-03T17:30:03.168Z,64.38
2023-01-03T17:32:30.953Z,47.90
2023-01-03T17:34:58.295Z,51.03
2023-01-03T17:37:26.149Z,35.92
2023-01-03T17:39:56.333Z,47.63
2023-01-03T17:42:24.508Z,63.25
2023-01-03T17:45:10.901Z,54.90
2023-01-03T17:48:01.681Z,60.13
2023-01-03T17:50:31.200Z,46.15
2023-01-03T17:53:00.219Z,21.77
2023-01-03T17:55:29.588Z,38.13
2023-01-03T17:57:57.485Z,30.20
2023-01-03T18:00:27.413Z,38.85
2023-01-03T18:02:55.912Z,55.50
2023-01-03T18:05:28.558Z,36.20
2023-01-03T18:08:01.004Z,25.17
2023-01-03T18:10:41.814Z,18.67
2023-01-03T18:13:22.573Z,27.60
2023-01-03T18:15:50.507Z,20.65
2023-01-03T18:18:20.269Z,19.70
2023-01-03T18:20:48.241Z,21.05
2023-01-03T18:23:18.714Z,13.27
2023-01-03T18:25:46.504Z,14.27
2023-01-03T18:28:16.963Z,16.80
2023-01-03T18:30:43.918Z,17.15
2023-01-03T18:33:10.822Z,16.42
2023-01-03T18:35:38.536Z,20.20
2023-01-03T18:38:06.034Z,15.80
2023-01-03T18:40:33.007Z,11.75
2023-01-03T18:43:13.073Z,17.85
2023-01-03T18:45:42.036Z,10.63
2023-01-03T18:48:17.174Z,9.07
2023-01-03T18:50:47.519Z,9.85
2023-01-03T18:53:23.788Z,12.85
2023-01-03T18:55:50.838Z,12.45
2023-01-03T18:58:25.042Z,12.48
2023-01-03T19:00:52.253Z,14.95
2023-01-03T19:03:22.829Z,10.15
2023-01-03T19:05:50.852Z,12.02
2023-01-03T19:08:19.795Z,10.35
2023-01-03T19:10:47.189Z,11.65
2023-01-03T19:13:51.546Z,13.73
2023-01-03T19:16:23.884Z,14.65
2023-01-03T19:18:51.667Z,12.45
2023-01-03T19:21:20.631Z,14.25
2023-01-03T19:23:58.599Z,14.85
2023-01-03T19:26:31.200Z,11.43
2023-01-03T19:29:01.951Z,17.63
2023-01-03T19:31:39.355Z,14.63
2023-01-03T19:34:14.939Z,20.98
2023-01-03T19:36:42.000Z,15.88
2023-01-03T19:39:09.681Z,17.90
2023-01-03T19:42:04.348Z,16.10
2023-01-03T19:44:32.848Z,15.10
2023-01-03T19:47:01.013Z,15.63
2023-01-03T19:49:28.394Z,16.00
2023-01-03T19:51:57.168Z,15.75
2023-01-03T19:54:24.796Z,14.05
2023-01-03T19:56:59.664Z,18.67
2023-01-03T19:59:34.357Z,22.88
2023-01-03T20:04:49.759Z,20.92
2023-01-03T20:07:16.795Z,17.73
2023-01-03T20:09:43.624Z,15.25
2023-01-03T20:12:15.489Z,17.08
2023-01-03T20:14:47.213Z,14.48
2023-01-03T20:17:25.987Z,19.05
2023-01-03T20:19:53.792Z,17.40
2023-01-03T20:23:02.703Z,17.48
2023-01-03T20:25:33.321Z,17.65
2023-01-03T20:28:01.514Z,19.98
2023-01-03T20:30:31.401Z,24.88
2023-01-03T20:32:58.610Z,20.10
2023-01-03T20:38:20.927Z,19.10
2023-01-03T20:40:47.860Z,17.35
2023-01-03T20:43:17.337Z,16.88
2023-01-03T20:45:45.510Z,20.48
2023-01-03T20:48:19.514Z,18.52
2023-01-03T20:50:51.868Z,23.52
2023-01-03T20:53:21.510Z,21.50
2023-01-03T20:55:49.575Z,20.20
2023-01-03T20:58:19.187Z,25.95
2023-01-03T21:00:46.876Z,21.23
2023-01-03T21:03:14.048Z,23.00
2023-01-03T21:05:41.053Z,19.75
2023-01-03T21:08:32.848Z,17.45
2023-01-03T21:11:00.012Z,23.10
2023-01-03T21:13:27.322Z,22.55
2023-01-03T21:15:54.234Z,20.50
2023-01-03T21:18:21.175Z,19.60
2023-01-03T21:20:48.043Z,19.90
2023-01-03T21:23:19.568Z,23.90
2023-01-03T21:25:47.588Z,22.25
2023-01-03T21:28:15.278Z,24.00
2023-01-03T21:30:43.259Z,22.80
2023-01-03T21:33:17.584Z,23.92
2023-01-03T21:35:45.571Z,27.57
2023-01-03T21:38:12.618Z,22.20
2023-01-03T21:40:39.545Z,22.58
2023-01-03T21:43:06.729Z,19.92
2023-01-03T21:45:44.034Z,21.77
2023-01-03T21:48:15.512Z,19.60
2023-01-03T21:50:45.523Z,24.67
2023-01-03T21:53:18.040Z,25.65
2023-01-03T21:55:45.742Z,21.58
2023-01-03T21:58:19.099Z,26.60
2023-01-03T22:00:46.443Z,24.70
2023-01-03T22:03:33.410Z,24.65
2023-01-03T22:06:11.325Z,26.95
2023-01-03T22:08:39.593Z,24.23
2023-01-03T22:11:07.245Z,27.63
2023-01-03T22:13:34.614Z,24.02
2023-01-03T22:16:06.717Z,27.10
2023-01-03T22:18:34.108Z,25.38
2023-01-03T22:21:09.932Z,26.83
2023-01-03T22:23:38.433Z,25.20
2023-01-03T22:26:08.601Z,26.70
2023-01-03T22:28:37.629Z,29.60
2023-01-03T22:31:16.521Z,25.23
2023-01-03T22:33:44.770Z,26.63
2023-01-03T22:36:11.916Z,30.23
2023-01-03T22:38:39.298Z,28.80
2023-01-03T22:41:10.248Z,30.15
2023-01-03T22:43:37.705Z,28.73
2023-01-03T22:46:14.894Z,28.92
2023-01-03T22:48:42.411Z,26.92
2023-01-03T22:51:12.853Z,25.80
2023-01-03T22:53:41.472Z,28.48
2023-01-03T22:56:11.505Z,33.13
2023-01-03T22:58:38.882Z,26.00
2023-01-03T23:01:12.184Z,29.00
2023-01-03T23:03:39.795Z,30.67
2023-01-03T23:06:12.182Z,28.13
2023-01-03T23:08:39.104Z,30.42
2023-01-03T23:11:34.325Z,30.30
2023-01-03T23:14:04.093Z,27.95
2023-01-03T23:16:32.469Z,29.17
2023-01-03T23:19:02.156Z,29.45
2023-01-03T23:21:29.517Z,29.77
2023-01-03T23:23:56.404Z,29.48
2023-01-03T23:26:24.202Z,30.92
2023-01-03T23:28:58.353Z,30.85
2023-01-03T23:31:27.581Z,27.73
2023-01-03T23:33:56.203Z,28.55
2023-01-03T23:36:23.442Z,31.42
2023-01-03T23:38:50.693Z,33.30
2023-01-03T23:41:18.116Z,31.27
2023-01-03T23:43:45.085Z,35.90
2023-01-03T23:46:17.499Z,32.03
2023-01-03T23:48:44.627Z,32.90
2023-01-03T23:51:12.396Z,35.55
2023-01-03T23:53:41.834Z,40.17
2023-01-03T23:56:14.955Z,36.67
2023-01-03T23:58:42.339Z,31.70
